Terminal Aerodrome Forecast
Issued by NWS

Home | Current Version | Previous Version | Text Only | Print | Product List | Glossary Off
Versions: 1 2 3 4 5 6 7 8 9 10 11 12 13 14 15 16 17

000
FTUS45 KGGW 240500
TAFSDY
TAF
KSDY 240521Z 2406/2506 29013KT P6SM SCT250
     FM241300 VRB04KT P6SM VCSH OVC026
     FM241800 00000KT 1/2SM FZRASN OVC016
     FM250000 VRB03KT 5SM -SN BKN014
      AMD LTD TO CLD VIS AND WIND=

USA.gov is the U.S. government's official web portal to all federal, state and local government web resources and services.